Time;durP1;ratioP1;P1;durP2;ratioP2;P2;SDS_P1;SDS_P2;PMS_P1;PMS_P2;Temp;Humidity;BMP_temperature;BMP_pressure;BME280_temperature;BME280_humidity;BME280_pressure;Samples;Min_cycle;Max_cycle;Signal;HPM_P1;HPM_P2
2022/11/26 00:02:22;;;;;;;3.03;0.80;;;18.20;78.00;;;;;;5013294;28;20032;-72
2022/11/26 00:04:48;;;;;;;3.15;1.45;;;18.20;78.00;;;;;;5013517;28;20048;-71
2022/11/26 00:07:16;;;;;;;1.33;0.68;;;18.20;78.10;;;;;;5028464;28;20109;-72
2022/11/26 00:09:42;;;;;;;2.50;0.75;;;18.20;78.10;;;;;;5015828;28;20488;-72
2022/11/26 00:12:21;;;;;;;4.00;0.85;;;18.20;78.10;;;;;;5031964;28;20033;-72
2022/11/26 00:14:47;;;;;;;3.92;0.70;;;18.20;78.20;;;;;;5032051;28;20048;-72
2022/11/26 00:17:16;;;;;;;2.85;0.82;;;18.20;78.20;;;;;;5015428;28;20707;-72
2022/11/26 00:19:42;;;;;;;4.35;0.90;;;18.20;78.20;;;;;;5015235;28;20483;-72
2022/11/26 00:22:28;;;;;;;1.75;0.77;;;18.20;78.20;;;;;;5033109;28;20021;-72
2022/11/26 00:24:54;;;;;;;3.03;0.85;;;18.10;78.10;;;;;;5032906;28;20021;-72
2022/11/26 00:27:20;;;;;;;2.22;1.00;;;18.20;78.20;;;;;;5031719;28;20025;-72
2022/11/26 00:29:45;;;;;;;3.35;0.98;;;18.20;78.20;;;;;;5031657;28;20534;-72
2022/11/26 00:32:14;;;;;;;2.90;1.20;;;18.20;78.20;;;;;;5032746;28;20026;-72
2022/11/26 00:34:40;;;;;;;2.00;0.95;;;18.20;78.30;;;;;;5015174;28;20029;-72
2022/11/26 00:37:17;;;;;;;3.05;0.90;;;18.20;78.30;;;;;;5031648;28;20059;-72
2022/11/26 00:39:43;;;;;;;5.70;1.10;;;18.20;78.20;;;;;;5016299;28;20040;-72
2022/11/26 00:42:09;;;;;;;2.55;0.85;;;18.20;79.20;;;;;;5031472;28;20030;-72
2022/11/26 00:44:34;;;;;;;1.48;0.70;;;18.10;78.10;;;;;;5014845;28;20514;-71
2022/11/26 00:47:00;;;;;;;2.97;0.80;;;18.20;78.20;;;;;;5031317;28;20049;-71
2022/11/26 00:49:27;;;;;;;3.60;0.77;;;18.20;78.10;;;;;;5032651;28;20440;-71
2022/11/26 00:51:53;;;;;;;5.35;0.90;;;18.20;78.10;;;;;;5032701;28;20099;-71
2022/11/26 00:54:18;;;;;;;1.60;0.68;;;18.10;78.10;;;;;;5031252;28;20492;-71
2022/11/26 00:56:45;;;;;;;1.83;0.77;;;18.20;78.20;;;;;;5031053;28;20597;-72
2022/11/26 00:59:16;;;;;;;1.27;0.90;;;18.20;78.20;;;;;;5014614;28;20065;-72
2022/11/26 01:01:42;;;;;;;5.07;0.70;;;18.20;78.10;;;;;;5031063;28;20086;-72
2022/11/26 01:04:08;;;;;;;1.83;0.88;;;18.20;78.10;;;;;;5031173;28;20017;-72
2022/11/26 01:06:35;;;;;;;1.45;0.80;;;18.20;78.00;;;;;;5021711;28;20029;-72
2022/11/26 01:09:03;;;;;;;3.20;0.80;;;18.20;78.00;;;;;;5012483;28;20022;-71
2022/11/26 01:11:29;;;;;;;4.68;0.75;;;18.20;78.00;;;;;;5011389;28;20030;-72
2022/11/26 01:13:55;;;;;;;2.80;1.08;;;18.20;78.00;;;;;;5012348;28;20032;-72
2022/11/26 01:16:25;;;;;;;2.05;0.75;;;18.20;78.00;;;;;;5011362;28;20036;-72
2022/11/26 01:18:52;;;;;;;2.00;0.60;;;18.20;78.00;;;;;;5011244;28;20080;-72
2022/11/26 01:21:18;;;;;;;2.20;0.70;;;18.20;77.90;;;;;;5011481;28;20025;-72
2022/11/26 01:23:44;;;;;;;5.15;0.90;;;18.30;78.00;;;;;;5011167;28;20276;-72
2022/11/26 01:26:21;;;;;;;3.38;0.52;;;18.20;77.90;;;;;;5022071;28;20033;-69
2022/11/26 01:28:46;;;;;;;3.72;0.85;;;18.20;77.90;;;;;;5029905;28;20029;-70
2022/11/26 01:31:17;;;;;;;1.67;0.63;;;18.20;78.00;;;;;;5030849;28;20029;-70
2022/11/26 01:33:43;;;;;;;2.90;0.63;;;18.20;77.90;;;;;;5030956;28;20514;-70
2022/11/26 01:36:33;;;;;;;4.63;0.65;;;18.30;78.00;;;;;;5030973;28;20025;-70
2022/11/26 01:39:19;;;;;;;5.43;1.10;;;18.30;78.00;;;;;;5030999;28;20021;-70
2022/11/26 01:42:02;;;;;;;1.73;0.73;;;18.20;77.90;;;;;;5030892;28;20286;-70
2022/11/26 01:44:30;;;;;;;6.50;0.98;;;18.20;77.90;;;;;;5032370;28;20025;-70
2022/11/26 01:46:56;;;;;;;7.80;1.50;;;18.20;77.90;;;;;;5030857;28;20028;-70
2022/11/26 01:49:24;;;;;;;3.50;0.90;;;18.20;77.90;;;;;;5030857;28;20021;-70
2022/11/26 01:52:14;;;;;;;0.93;0.70;;;18.20;77.90;;;;;;5032010;28;20025;-70
2022/11/26 01:54:41;;;;;;;6.80;0.80;;;18.20;77.90;;;;;;5030949;28;20026;-70
2022/11/26 01:57:15;;;;;;;2.13;0.85;;;18.20;77.90;;;;;;5030317;28;20088;-70
2022/11/26 01:59:42;;;;;;;2.58;0.88;;;18.20;78.00;;;;;;5030372;28;20025;-70
2022/11/26 02:02:08;;;;;;;1.98;0.88;;;18.20;78.00;;;;;;5030670;28;20052;-70
2022/11/26 02:04:46;;;;;;;2.72;1.00;;;18.20;78.10;;;;;;5032116;28;20029;-70
2022/11/26 02:07:11;;;;;;;4.97;1.00;;;18.20;78.10;;;;;;5014764;28;20399;-70
2022/11/26 02:09:37;;;;;;;2.90;0.70;;;18.20;78.20;;;;;;5010814;28;20109;-70
2022/11/26 02:12:03;;;;;;;2.35;0.88;;;18.20;78.20;;;;;;5010810;28;20036;-70
2022/11/26 02:14:34;;;;;;;4.82;1.00;;;18.30;78.30;;;;;;5010850;28;20053;-70
2022/11/26 02:17:12;;;;;;;3.40;0.93;;;18.20;78.30;;;;;;5011038;28;20033;-70
2022/11/26 02:20:02;;;;;;;2.15;0.93;;;18.20;78.30;;;;;;5011656;28;20032;-70
2022/11/26 02:23:05;;;;;;;2.25;0.90;;;18.20;78.40;;;;;;4998484;28;20598;-70
2022/11/26 02:25:37;;;;;;;;;;;18.20;78.40;;;;;;5016010;28;20022;-70
2022/11/26 02:28:18;;;;;;;2.67;0.73;;;18.20;78.30;;;;;;5015489;28;19988;-70
2022/11/26 02:30:55;;;;;;;2.58;0.60;;;18.20;78.40;;;;;;5015267;28;20451;-70
2022/11/26 02:33:28;;;;;;;2.42;0.80;;;18.20;78.40;;;;;;5014128;28;20029;-70
2022/11/26 02:36:14;;;;;;;1.85;0.93;;;18.20;78.40;;;;;;5014076;28;20133;-72
2022/11/26 02:38:39;;;;;;;1.23;0.63;;;18.20;78.40;;;;;;5014106;28;20069;-72
2022/11/26 02:41:05;;;;;;;1.70;0.80;;;18.20;78.40;;;;;;5013804;28;20022;-72
2022/11/26 02:43:31;;;;;;;3.60;0.80;;;18.20;78.40;;;;;;5015016;28;20404;-72
2022/11/26 02:46:03;;;;;;;4.82;1.08;;;18.20;78.40;;;;;;5013945;28;20033;-72
2022/11/26 02:48:32;;;;;;;2.33;0.98;;;18.20;78.40;;;;;;5013845;28;20025;-72
2022/11/26 02:51:10;;;;;;;1.35;0.70;;;18.20;78.40;;;;;;5014856;28;20040;-72
2022/11/26 02:53:36;;;;;;;1.77;0.60;;;18.20;78.50;;;;;;5013897;28;20180;-72
2022/11/26 02:56:16;;;;;;;2.88;0.70;;;18.20;78.50;;;;;;5013583;28;20109;-72
2022/11/26 02:58:42;;;;;;;2.75;1.00;;;18.20;78.50;;;;;;5024531;28;20034;-72
2022/11/26 03:01:15;;;;;;;1.20;0.73;;;18.20;78.50;;;;;;5033441;28;20032;-72
2022/11/26 03:03:45;;;;;;;1.73;0.85;;;18.20;78.50;;;;;;5033277;28;20433;-72
2022/11/26 03:06:11;;;;;;;3.45;0.90;;;18.20;78.50;;;;;;5025673;28;20018;-72
2022/11/26 03:08:37;;;;;;;1.67;0.60;;;18.20;78.40;;;;;;5013370;28;20026;-72
2022/11/26 03:11:03;;;;;;;1.38;0.70;;;18.20;78.40;;;;;;5013207;28;20492;-72
2022/11/26 03:13:29;;;;;;;2.83;1.25;;;18.20;78.40;;;;;;5013363;28;20026;-72
2022/11/26 03:15:55;;;;;;;3.50;0.82;;;18.20;78.50;;;;;;5013218;28;20030;-72
2022/11/26 03:18:20;;;;;;;2.50;0.90;;;18.20;78.50;;;;;;5014419;28;20492;-72
2022/11/26 03:20:46;;;;;;;0.80;0.60;;;18.20;78.50;;;;;;5013084;28;20033;-71
2022/11/26 03:23:12;;;;;;;1.40;0.73;;;18.20;78.40;;;;;;5013315;28;20026;-71
2022/11/26 03:25:38;;;;;;;2.47;0.65;;;18.20;78.40;;;;;;5013106;28;20025;-71
2022/11/26 03:28:03;;;;;;;2.00;0.90;;;18.20;78.40;;;;;;5012962;28;20036;-72
2022/11/26 03:30:29;;;;;;;1.27;0.70;;;18.20;78.50;;;;;;5013105;28;20105;-71
2022/11/26 03:32:55;;;;;;;3.40;1.00;;;18.20;78.50;;;;;;5013979;28;20130;-71
2022/11/26 03:35:20;;;;;;;2.42;0.77;;;18.20;78.40;;;;;;5014185;28;20488;-72
2022/11/26 03:37:46;;;;;;;1.67;0.88;;;18.20;78.40;;;;;;5013873;28;20492;-71
2022/11/26 03:40:12;;;;;;;3.70;1.13;;;18.20;78.40;;;;;;5012634;28;20105;-72
2022/11/26 03:42:37;;;;;;;1.17;0.70;;;18.20;78.40;;;;;;5013989;28;20082;-72
2022/11/26 03:45:03;;;;;;;2.60;0.75;;;18.20;78.40;;;;;;5012704;28;20064;-72
2022/11/26 03:47:29;;;;;;;3.60;1.02;;;18.10;78.30;;;;;;5012618;28;20022;-72
2022/11/26 03:49:55;;;;;;;2.85;0.75;;;18.10;78.30;;;;;;5013886;28;20022;-72
2022/11/26 03:52:20;;;;;;;1.15;0.70;;;18.20;78.40;;;;;;5013738;28;20030;-72
2022/11/26 03:54:46;;;;;;;2.88;0.90;;;18.20;78.40;;;;;;5012483;28;20080;-71
2022/11/26 03:57:12;;;;;;;1.92;0.80;;;18.20;78.40;;;;;;5012633;28;20053;-72
2022/11/26 03:59:37;;;;;;;2.75;0.70;;;18.20;78.40;;;;;;5031981;28;20033;-72
2022/11/26 04:02:03;;;;;;;3.15;0.80;;;18.20;78.40;;;;;;5032251;28;20034;-71
2022/11/26 04:04:29;;;;;;;1.67;0.70;;;18.20;78.40;;;;;;5032374;28;20025;-72
2022/11/26 04:06:55;;;;;;;2.15;0.77;;;18.20;78.40;;;;;;5018564;28;20026;-72
2022/11/26 04:09:21;;;;;;;1.02;0.70;;;18.20;78.40;;;;;;5013393;28;20032;-72
2022/11/26 04:11:46;;;;;;;1.73;0.55;;;18.20;78.50;;;;;;5012227;28;20400;-72
2022/11/26 04:14:12;;;;;;;1.75;0.95;;;18.20;78.50;;;;;;5012377;28;20017;-72
2022/11/26 04:16:38;;;;;;;1.67;0.60;;;18.20;78.50;;;;;;5013430;28;20392;-72
2022/11/26 04:19:03;;;;;;;1.70;0.50;;;18.20;78.50;;;;;;5012015;28;20026;-72
2022/11/26 04:21:29;;;;;;;1.60;0.60;;;18.20;78.50;;;;;;5012104;28;20026;-72
2022/11/26 04:23:54;;;;;;;2.47;0.80;;;18.20;78.50;;;;;;5012978;28;20449;-72
2022/11/26 04:26:20;;;;;;;1.98;0.90;;;18.20;78.50;;;;;;5012078;28;20480;-72
2022/11/26 04:28:46;;;;;;;0.50;0.43;;;18.20;78.50;;;;;;5012072;28;20065;-72
2022/11/26 04:31:11;;;;;;;4.00;0.68;;;18.20;78.60;;;;;;5013134;28;20026;-72
2022/11/26 04:33:37;;;;;;;1.23;0.88;;;18.20;78.70;;;;;;5011822;28;20443;-72
2022/11/26 04:36:03;;;;;;;1.67;0.68;;;18.20;78.70;;;;;;5011798;28;20054;-72
2022/11/26 04:38:28;;;;;;;0.85;0.52;;;18.20;78.70;;;;;;5012990;28;20026;-72
2022/11/26 04:40:54;;;;;;;3.00;0.90;;;18.20;78.70;;;;;;5012889;28;20021;-72
2022/11/26 04:43:20;;;;;;;1.17;0.80;;;18.20;78.80;;;;;;5013162;28;20029;-72
2022/11/26 04:45:46;;;;;;;1.73;0.77;;;18.20;78.80;;;;;;5011057;28;20408;-72
2022/11/26 04:48:11;;;;;;;2.13;0.80;;;18.10;78.70;;;;;;5012933;28;20026;-72
2022/11/26 04:50:37;;;;;;;1.13;0.45;;;18.20;78.70;;;;;;5013000;28;20037;-72
2022/11/26 04:53:02;;;;;;;1.15;0.57;;;18.20;78.70;;;;;;5011340;28;20034;-71
2022/11/26 04:55:28;;;;;;;1.63;0.77;;;18.20;78.70;;;;;;5011670;28;20026;-72
2022/11/26 04:57:54;;;;;;;1.17;0.50;;;18.20;78.70;;;;;;5015500;28;20475;-72
2022/11/26 05:00:19;;;;;;;2.53;0.68;;;18.20;78.70;;;;;;5032492;28;20160;-72
2022/11/26 05:02:45;;;;;;;2.17;0.63;;;18.20;78.80;;;;;;5032614;28;20014;-72
2022/11/26 05:05:11;;;;;;;1.45;0.90;;;18.20;78.80;;;;;;5031423;28;20032;-72
2022/11/26 05:07:37;;;;;;;2.95;0.70;;;18.20;78.90;;;;;;5011795;28;20026;-71
2022/11/26 05:10:03;;;;;;;3.17;0.95;;;18.20;79.00;;;;;;5012472;28;20037;-71
2022/11/26 05:12:29;;;;;;;1.30;0.90;;;18.20;79.00;;;;;;5011561;28;20030;-72
2022/11/26 05:14:54;;;;;;;2.88;0.77;;;18.20;79.00;;;;;;5012482;28;20026;-72
2022/11/26 05:17:20;;;;;;;2.60;1.00;;;18.20;79.00;;;;;;5011553;28;20373;-72
2022/11/26 05:19:46;;;;;;;2.45;0.80;;;18.20;79.00;;;;;;5012434;28;20516;-72
2022/11/26 05:22:11;;;;;;;1.80;0.80;;;18.20;79.00;;;;;;5012194;28;20022;-72
2022/11/26 05:24:37;;;;;;;3.67;0.50;;;18.20;79.00;;;;;;5012656;28;20073;-72
2022/11/26 05:27:02;;;;;;;2.30;0.85;;;18.10;79.00;;;;;;5012499;28;20085;-72
2022/11/26 05:29:28;;;;;;;2.25;0.70;;;18.20;79.10;;;;;;5011080;28;20088;-72
2022/11/26 05:31:54;;;;;;;1.33;0.70;;;18.20;79.10;;;;;;5011280;28;20057;-72
2022/11/26 05:34:19;;;;;;;0.82;0.50;;;18.20;79.10;;;;;;5011175;28;20040;-72
2022/11/26 05:36:45;;;;;;;2.28;0.80;;;18.20;79.20;;;;;;4994563;28;20034;-72
2022/11/26 05:39:11;;;;;;;3.22;0.70;;;18.20;79.10;;;;;;5011105;28;20580;-72
2022/11/26 05:41:36;;;;;;;2.10;0.85;;;18.20;79.30;;;;;;5012316;28;20547;-72
2022/11/26 05:44:02;;;;;;;1.42;0.57;;;18.20;79.10;;;;;;5011214;28;20503;-72
2022/11/26 05:46:28;;;;;;;1.00;0.50;;;18.20;79.20;;;;;;5012255;28;20034;-72
2022/11/26 05:48:53;;;;;;;0.80;0.68;;;18.20;79.10;;;;;;5012211;28;20030;-72
2022/11/26 05:51:19;;;;;;;1.65;0.60;;;18.20;79.10;;;;;;5012174;28;20031;-72
2022/11/26 05:53:45;;;;;;;1.25;0.40;;;18.20;79.20;;;;;;5012266;28;20411;-72
2022/11/26 05:56:10;;;;;;;2.13;0.55;;;18.20;79.00;;;;;;5012195;28;20480;-72
2022/11/26 05:58:36;;;;;;;1.05;0.52;;;18.20;79.10;;;;;;5025744;28;20050;-72
2022/11/26 06:01:08;;;;;;;0.70;0.50;;;18.20;79.20;;;;;;5035478;28;20025;-71
2022/11/26 06:03:34;;;;;;;4.05;0.70;;;18.20;79.20;;;;;;5034421;28;20083;-72
2022/11/26 06:06:00;;;;;;;1.85;0.60;;;18.20;79.20;;;;;;5028431;28;20014;-71
2022/11/26 06:08:26;;;;;;;1.05;0.63;;;18.20;80.20;;;;;;5014582;28;20033;-72
2022/11/26 06:10:51;;;;;;;1.55;0.65;;;18.20;79.20;;;;;;5014449;28;20488;-72
2022/11/26 06:13:17;;;;;;;1.45;0.77;;;18.20;79.20;;;;;;5015778;28;20105;-72
2022/11/26 06:15:42;;;;;;;1.25;0.70;;;18.20;79.20;;;;;;5015765;28;20034;-72
2022/11/26 06:18:08;;;;;;;0.68;0.57;;;18.20;79.20;;;;;;5014111;28;20064;-71
2022/11/26 06:20:34;;;;;;;2.03;0.60;;;18.20;79.20;;;;;;5015498;28;20030;-72
2022/11/26 06:23:00;;;;;;;2.00;0.70;;;18.20;79.20;;;;;;5014147;28;20021;-72
2022/11/26 06:25:25;;;;;;;1.85;0.70;;;18.20;79.20;;;;;;5015608;28;20072;-72
2022/11/26 06:27:51;;;;;;;1.25;0.50;;;18.20;79.20;;;;;;5015506;28;20269;-72
2022/11/26 06:30:17;;;;;;;0.88;0.45;;;18.10;79.10;;;;;;5033224;28;20101;-71
2022/11/26 06:32:42;;;;;;;1.35;0.70;;;18.20;79.20;;;;;;5033798;28;20041;-70
2022/11/26 06:35:08;;;;;;;1.63;0.80;;;18.20;79.20;;;;;;5034925;28;20032;-70
2022/11/26 06:37:34;;;;;;;4.25;0.88;;;18.20;79.20;;;;;;5033835;28;20030;-70
2022/11/26 06:40:00;;;;;;;2.97;0.80;;;18.20;79.20;;;;;;5033701;28;20558;-71
2022/11/26 06:42:26;;;;;;;1.77;0.68;;;18.20;79.10;;;;;;5034914;28;20113;-72
2022/11/26 06:44:51;;;;;;;5.50;0.85;;;18.20;79.20;;;;;;5033764;28;20056;-72
2022/11/26 06:47:17;;;;;;;1.63;0.65;;;18.10;79.00;;;;;;5033430;28;20029;-72
2022/11/26 06:49:43;;;;;;;1.23;0.60;;;18.10;79.10;;;;;;5034668;28;20065;-72
2022/11/26 06:52:08;;;;;;;2.25;0.55;;;18.20;79.10;;;;;;5034613;28;20026;-72
2022/11/26 06:54:34;;;;;;;2.75;0.60;;;18.10;79.10;;;;;;5034782;28;20526;-72
2022/11/26 06:57:00;;;;;;;3.13;0.40;;;18.10;79.10;;;;;;5034303;28;20145;-72
2022/11/26 06:59:25;;;;;;;4.10;0.70;;;18.20;79.20;;;;;;5034191;28;20112;-72
2022/11/26 07:01:51;;;;;;;1.60;0.60;;;18.20;79.20;;;;;;5033279;28;20030;-72
2022/11/26 07:04:16;;;;;;;4.70;0.60;;;18.10;79.10;;;;;;5034428;28;20017;-72
2022/11/26 07:06:43;;;;;;;0.90;0.40;;;18.10;79.10;;;;;;5022846;28;20389;-72
2022/11/26 07:09:09;;;;;;;0.80;0.40;;;18.20;79.10;;;;;;5014141;28;20021;-72
2022/11/26 07:11:35;;;;;;;1.15;0.40;;;18.10;79.10;;;;;;5013398;28;20057;-72
2022/11/26 07:14:01;;;;;;;3.35;0.50;;;18.10;79.10;;;;;;5013416;28;20025;-72
2022/11/26 07:16:27;;;;;;;2.85;0.98;;;18.10;79.10;;;;;;5014334;28;20037;-72
2022/11/26 07:18:53;;;;;;;1.52;0.50;;;18.10;79.10;;;;;;5013176;28;20022;-72
2022/11/26 07:21:19;;;;;;;0.43;0.40;;;18.10;79.20;;;;;;5013110;28;20077;-72
2022/11/26 07:23:45;;;;;;;1.48;0.57;;;18.10;79.10;;;;;;5013116;28;20026;-72
2022/11/26 07:26:11;;;;;;;1.73;0.70;;;18.10;79.20;;;;;;5013236;28;20041;-72
2022/11/26 07:28:37;;;;;;;1.80;0.60;;;18.10;79.20;;;;;;5013176;28;20022;-72
2022/11/26 07:31:07;;;;;;;0.77;0.50;;;18.10;79.20;;;;;;5013962;28;20034;-72
2022/11/26 07:33:32;;;;;;;0.85;0.57;;;18.10;79.20;;;;;;5013188;28;20549;-72
2022/11/26 07:36:03;;;;;;;4.28;0.77;;;18.10;79.20;;;;;;5012975;28;20173;-72
2022/11/26 07:38:29;;;;;;;1.30;0.43;;;18.10;79.20;;;;;;5012820;28;20053;-72
2022/11/26 07:40:54;;;;;;;2.30;0.60;;;18.10;80.30;;;;;;5012765;28;20468;-72
2022/11/26 07:43:20;;;;;;;0.65;0.50;;;18.10;79.30;;;;;;5013887;28;20018;-72
2022/11/26 07:45:46;;;;;;;1.13;0.50;;;18.10;79.30;;;;;;5012577;28;20104;-72
2022/11/26 07:48:11;;;;;;;1.38;0.60;;;18.10;79.30;;;;;;5013817;28;20504;-72
2022/11/26 07:50:37;;;;;;;3.00;0.82;;;18.10;79.20;;;;;;5012784;28;20508;-72
2022/11/26 07:53:02;;;;;;;2.03;0.70;;;18.10;79.30;;;;;;5013679;28;20432;-72
2022/11/26 07:55:28;;;;;;;1.80;0.40;;;18.10;79.30;;;;;;5013689;28;20086;-72
2022/11/26 07:57:54;;;;;;;2.35;0.90;;;18.10;79.30;;;;;;5017729;28;20416;-72
2022/11/26 08:00:20;;;;;;;0.93;0.52;;;18.10;79.30;;;;;;5031856;28;20034;-72
2022/11/26 08:02:45;;;;;;;2.13;0.90;;;18.10;79.40;;;;;;5032159;28;20049;-72
2022/11/26 08:05:11;;;;;;;1.30;0.30;;;18.10;79.30;;;;;;5032149;28;20029;-72
2022/11/26 08:07:36;;;;;;;1.95;0.60;;;18.10;79.30;;;;;;5012951;28;20022;-71
2022/11/26 08:10:05;;;;;;;1.33;0.60;;;18.10;80.40;;;;;;5012367;28;20026;-69
2022/11/26 08:12:31;;;;;;;3.03;0.52;;;18.10;79.40;;;;;;5013958;28;20487;-69
2022/11/26 08:14:57;;;;;;;0.60;0.50;;;18.10;79.30;;;;;;5013173;28;20033;-69
2022/11/26 08:17:22;;;;;;;1.92;0.60;;;18.10;79.40;;;;;;5013439;28;20033;-69
2022/11/26 08:19:48;;;;;;;1.60;0.50;;;18.10;79.40;;;;;;5012493;28;20036;-69
2022/11/26 08:22:13;;;;;;;2.03;0.50;;;18.10;79.40;;;;;;5013197;28;20109;-69
2022/11/26 08:24:39;;;;;;;2.15;0.50;;;18.20;79.50;;;;;;5013351;28;20017;-69
2022/11/26 08:27:05;;;;;;;0.75;0.40;;;18.10;79.30;;;;;;5013063;28;20484;-69
2022/11/26 08:29:30;;;;;;;2.08;0.50;;;18.20;79.40;;;;;;5011853;28;20036;-69
2022/11/26 08:31:56;;;;;;;0.57;0.40;;;18.20;79.40;;;;;;5013295;28;20045;-69
2022/11/26 08:34:22;;;;;;;0.45;0.40;;;18.10;79.30;;;;;;5013053;28;20026;-70
2022/11/26 08:36:47;;;;;;;1.65;0.63;;;18.20;79.50;;;;;;5011921;28;20030;-69
2022/11/26 08:39:14;;;;;;;0.98;0.57;;;18.20;79.40;;;;;;5011747;28;20477;-69
2022/11/26 08:41:40;;;;;;;0.60;0.40;;;18.20;79.40;;;;;;5011804;28;20026;-70
2022/11/26 08:44:05;;;;;;;2.58;0.65;;;18.20;79.40;;;;;;5012771;28;20639;-70
2022/11/26 08:46:32;;;;;;;0.73;0.60;;;18.10;79.30;;;;;;5012986;28;20147;-70
2022/11/26 08:48:59;;;;;;;1.50;0.50;;;18.10;79.30;;;;;;5011684;28;20157;-70
2022/11/26 08:51:26;;;;;;;1.08;0.43;;;18.10;79.40;;;;;;5012842;28;20025;-69
2022/11/26 08:53:53;;;;;;;2.75;0.52;;;18.20;79.50;;;;;;5012909;28;20050;-70
2022/11/26 08:56:19;;;;;;;1.25;0.47;;;18.20;79.50;;;;;;5011494;28;20395;-70
2022/11/26 08:58:47;;;;;;;0.90;0.40;;;18.10;79.40;;;;;;5022441;28;20036;-69
2022/11/26 09:01:18;;;;;;;1.85;0.63;;;18.20;79.50;;;;;;5032402;28;20043;-69
2022/11/26 09:03:43;;;;;;;0.57;0.40;;;18.20;79.50;;;;;;5031360;28;20026;-69
2022/11/26 09:06:10;;;;;;;0.63;0.38;;;18.20;79.50;;;;;;5030553;28;20024;-70
2022/11/26 09:09:37;;;;;;;0.85;0.40;;;18.20;79.40;;;;;;5030553;28;20025;-70
2022/11/26 09:11:31;;;;;;;2.70;0.47;;;18.10;79.40;;;;;;5025690;28;20042;-70
2022/11/26 09:13:57;;;;;;;4.95;0.77;;;18.20;79.20;;;;;;5029956;28;20088;-70
2022/11/26 09:16:22;;;;;;;8.57;0.80;;;18.20;77.20;;;;;;5030320;28;20030;-70
2022/11/26 09:18:48;;;;;;;2.72;0.77;;;18.10;76.80;;;;;;5030601;28;20082;-70
2022/11/26 09:21:14;;;;;;;2.35;0.40;;;18.10;76.60;;;;;;5030495;28;20116;-71
2022/11/26 09:23:40;;;;;;;3.95;0.98;;;18.00;76.60;;;;;;5031573;28;20022;-71
2022/11/26 09:26:05;;;;;;;4.50;1.00;;;18.00;76.60;;;;;;5031628;28;20056;-71
2022/11/26 09:28:31;;;;;;;8.88;1.23;;;18.00;76.60;;;;;;5030294;28;20029;-71
2022/11/26 09:30:57;;;;;;;10.45;1.27;;;17.90;76.50;;;;;;5032730;28;20484;-70
2022/11/26 09:33:23;;;;;;;9.88;1.92;;;17.90;76.40;;;;;;5034434;28;20029;-72
2022/11/26 09:35:49;;;;;;;8.45;2.08;;;17.90;76.50;;;;;;5034546;28;20401;-72
2022/11/26 09:38:14;;;;;;;7.15;1.52;;;17.90;76.50;;;;;;5035319;28;20086;-72
2022/11/26 09:40:48;;;;;;;10.00;2.05;;;17.90;76.70;;;;;;5035571;28;20044;-72
2022/11/26 09:43:37;;;;;;;9.82;2.67;;;17.80;76.50;;;;;;5034104;28;20036;-72
2022/11/26 09:46:03;;;;;;;6.10;1.73;;;17.80;76.50;;;;;;5032154;28;20033;-73
2022/11/26 09:48:30;;;;;;;9.15;2.67;;;17.90;76.40;;;;;;5033950;28;20056;-73
2022/11/26 09:51:02;;;;;;;4.38;1.90;;;17.80;76.40;;;;;;5034197;28;20021;-73
2022/11/26 09:53:30;;;;;;;14.32;2.63;;;17.80;76.30;;;;;;5034008;28;20029;-72
2022/11/26 09:55:56;;;;;;;7.18;2.30;;;17.80;76.30;;;;;;5033970;28;20492;-69
2022/11/26 09:58:45;;;;;;;9.57;2.33;;;17.80;76.30;;;;;;5033136;28;20071;-69
2022/11/26 10:01:15;;;;;;;5.38;2.53;;;17.80;76.40;;;;;;5035058;28;20045;-69
2022/11/26 10:03:41;;;;;;;5.05;2.03;;;17.80;76.30;;;;;;5033610;28;20021;-69
2022/11/26 10:06:06;;;;;;;12.63;2.40;;;17.80;76.30;;;;;;5026801;28;20434;-71
2022/11/26 10:08:50;;;;;;;7.75;2.42;;;17.80;76.30;;;;;;5014937;28;20026;-71
2022/11/26 10:11:18;;;;;;;9.70;2.83;;;17.80;76.30;;;;;;5014611;28;20029;-72
2022/11/26 10:13:55;;;;;;;6.00;2.45;;;17.70;76.30;;;;;;5013572;28;20026;-72
2022/11/26 10:16:39;;;;;;;5.97;2.05;;;17.70;76.20;;;;;;5013763;28;20022;-73
2022/11/26 10:19:19;;;;;;;9.68;2.17;;;17.70;76.00;;;;;;5033686;28;20037;-70
2022/11/26 10:21:50;;;;;;;11.18;2.35;;;17.70;75.70;;;;;;5033309;28;20018;-72
2022/11/26 10:24:27;;;;;;;8.50;2.15;;;17.70;75.60;;;;;;5033008;28;20021;-72
2022/11/26 10:26:53;;;;;;;8.35;2.10;;;17.70;75.50;;;;;;5014600;28;20068;-72
2022/11/26 10:29:22;;;;;;;11.50;2.22;;;17.70;75.40;;;;;;5014854;28;20033;-72
2022/11/26 10:31:50;;;;;;;9.90;2.13;;;17.60;75.20;;;;;;5014635;28;20072;-72
2022/11/26 10:34:29;;;;;;;13.23;2.45;;;17.60;74.70;;;;;;5014556;28;20033;-72
2022/11/26 10:36:55;;;;;;;11.18;2.00;;;17.60;74.60;;;;;;5032660;28;20399;-72
2022/11/26 10:39:21;;;;;;;11.05;2.05;;;17.50;74.30;;;;;;5033918;28;20404;-72
2022/11/26 10:41:46;;;;;;;10.32;2.00;;;17.50;73.80;;;;;;5033788;28;20474;-72
2022/11/26 10:44:38;;;;;;;12.23;2.13;;;17.50;73.80;;;;;;5065513;28;20025;-72
2022/11/26 10:47:23;;;;;;;11.57;1.88;;;17.40;73.40;;;;;;5065495;28;20044;-72
2022/11/26 10:49:50;;;;;;;14.85;2.78;;;17.40;73.20;;;;;;5033790;28;20076;-72
2022/11/26 10:52:26;;;;;;;8.73;1.90;;;17.30;73.20;;;;;;5048778;28;20017;-72
2022/11/26 10:55:07;;;;;;;10.98;2.40;;;17.30;73.20;;;;;;5062482;28;20028;-72
2022/11/26 10:57:34;;;;;;;13.85;1.88;;;17.30;73.20;;;;;;5033137;28;20049;-72
2022/11/26 10:59:59;;;;;;;14.85;2.65;;;17.20;73.10;;;;;;5051610;28;20044;-72
2022/11/26 11:02:40;;;;;;;13.43;2.08;;;17.20;73.20;;;;;;5051891;28;20471;-72
2022/11/26 11:05:07;;;;;;;12.73;2.63;;;17.20;73.10;;;;;;5036704;28;20036;-72
2022/11/26 11:07:37;;;;;;;12.00;2.17;;;17.20;73.10;;;;;;5017090;28;20018;-73
2022/11/26 11:10:08;;;;;;;13.63;2.47;;;17.10;73.20;;;;;;5032173;28;20033;-72
2022/11/26 11:12:41;;;;;;;10.30;2.20;;;17.10;73.00;;;;;;5034988;28;20034;-73
2022/11/26 11:15:23;;;;;;;13.40;2.55;;;17.10;73.10;;;;;;5050130;28;20399;-73
2022/11/26 11:17:58;;;;;;;9.73;1.83;;;17.10;73.00;;;;;;5049692;28;20104;-72
2022/11/26 11:20:28;;;;;;;13.98;2.25;;;17.00;73.10;;;;;;5034594;28;20106;-72
2022/11/26 11:23:14;;;;;;;11.70;2.40;;;17.00;73.10;;;;;;5066531;28;20022;-72
2022/11/26 11:25:41;;;;;;;11.23;2.42;;;17.00;73.00;;;;;;5034013;28;20030;-72
2022/11/26 11:28:12;;;;;;;13.15;2.45;;;17.00;72.90;;;;;;5033020;28;20048;-72
2022/11/26 11:30:38;;;;;;;13.13;2.60;;;16.90;72.90;;;;;;5066310;28;20071;-72
2022/11/26 11:33:10;;;;;;;14.23;3.05;;;16.90;73.10;;;;;;5034566;28;20029;-72
2022/11/26 11:35:35;;;;;;;12.60;2.60;;;16.90;73.00;;;;;;5034413;28;20024;-72
2022/11/26 11:38:01;;;;;;;11.07;2.58;;;16.90;73.00;;;;;;5049386;28;20109;-72
2022/11/26 11:40:29;;;;;;;10.35;2.15;;;16.90;73.20;;;;;;5049400;28;20442;-72
2022/11/26 11:43:03;;;;;;;12.32;2.58;;;16.80;73.20;;;;;;5049652;28;20025;-72
2022/11/26 11:45:32;;;;;;;10.02;2.28;;;16.80;73.30;;;;;;5066250;28;20075;-72
2022/11/26 11:48:04;;;;;;;12.15;2.50;;;16.80;73.20;;;;;;5066328;28;20052;-72
2022/11/26 11:50:49;;;;;;;13.80;2.42;;;16.80;74.30;;;;;;5048767;28;20025;-72
2022/11/26 11:53:23;;;;;;;16.65;3.00;;;16.80;73.30;;;;;;5047297;28;20036;-70
2022/11/26 11:55:52;;;;;;;12.07;3.10;;;16.70;73.00;;;;;;5034229;28;20100;-71
2022/11/26 11:58:45;;;;;;;14.13;3.35;;;16.70;73.10;;;;;;5065503;28;20052;-72
2022/11/26 12:01:24;;;;;;;15.60;2.90;;;16.70;73.00;;;;;;5034063;28;20030;-72
2022/11/26 12:04:03;;;;;;;11.88;2.90;;;16.70;73.10;;;;;;5032837;28;20060;-72
2022/11/26 12:06:39;;;;;;;10.93;2.95;;;16.60;73.20;;;;;;5032327;28;20053;-72
2022/11/26 12:09:41;;;;;;;15.85;3.00;;;16.60;73.00;;;;;;5032534;28;20029;-72
2022/11/26 12:12:20;;;;;;;13.07;3.00;;;16.60;73.00;;;;;;5032509;28;20047;-72
2022/11/26 12:15:02;;;;;;;9.77;2.67;;;16.60;73.30;;;;;;5032288;28;20057;-72
2022/11/26 12:17:39;;;;;;;18.15;3.20;;;16.60;73.20;;;;;;5016469;28;20118;-72
2022/11/26 12:20:25;;;;;;;10.05;2.30;;;16.50;73.40;;;;;;5032369;28;20515;-72
2022/11/26 12:23:03;;;;;;;12.02;2.72;;;16.50;73.40;;;;;;5033042;28;20052;-73
2022/11/26 12:25:35;;;;;;;12.40;2.60;;;16.60;73.30;;;;;;5017266;28;20021;-74
2022/11/26 12:28:02;;;;;;;11.80;2.63;;;16.50;73.30;;;;;;5016082;28;20041;-73
2022/11/26 12:30:43;;;;;;;14.30;2.97;;;16.50;73.40;;;;;;5033203;28;20460;-73
2022/11/26 12:33:19;;;;;;;11.02;2.72;;;16.50;73.20;;;;;;5033402;28;20056;-72
2022/11/26 12:35:49;;;;;;;16.60;3.08;;;16.50;73.40;;;;;;5016440;28;20071;-72
2022/11/26 12:38:29;;;;;;;15.07;2.50;;;16.40;73.30;;;;;;5031807;28;20690;-73
2022/11/26 12:40:57;;;;;;;9.68;2.63;;;16.40;73.50;;;;;;5016732;28;20061;-72
2022/11/26 12:43:35;;;;;;;14.75;2.67;;;16.40;73.50;;;;;;5032149;28;20041;-73
2022/11/26 12:46:09;;;;;;;12.80;2.20;;;16.40;73.20;;;;;;5031997;28;20021;-73
2022/11/26 12:48:47;;;;;;;11.18;2.85;;;16.40;73.20;;;;;;5016192;28;20067;-71
2022/11/26 12:51:33;;;;;;;10.18;2.70;;;16.40;73.30;;;;;;5031922;28;20060;-70
2022/11/26 12:54:08;;;;;;;15.90;2.60;;;16.30;73.20;;;;;;5033058;28;20025;-71
2022/11/26 12:56:57;;;;;;;10.40;2.83;;;16.30;73.40;;;;;;5032881;28;20034;-73